LTCI

Van Ferit Melen Airport

Van, Turkey
TAF LTCI 261040Z 2612/2621 27008KT 9999 FEW040 SCT100
Issued Valid From Valid To
Apr-26 @ 10:40 UTC
(3 hours ago)
Apr-26 @ 12:00 UTC
(2 hours ago)
Apr-26 @ 21:00 UTC
(in 7 hours)
Apr-26 @ 12:00 to Apr-26 @ 21:00
TAF LTCI 261040Z 2612/2621 27008KT 9999 FEW040 SCT100
Wind Visibility Clouds
270° at 8 knots 10,000+ meters
  • Few at 4,000' AGL
  • Scattered at 10,000' AGL
TAF LTCI 261040Z 2612/2621 27008KT 9999 FEW040 SCT100
Issued Apr-26 @ 10:40 UTC
(3 hours ago)
Valid From Apr-26 @ 12:00 UTC
(2 hours ago)
Valid To Apr-26 @ 21:00 UTC
(in 7 hours)
Apr-26 @ 12:00 - Apr-26 @ 21:00
Wind Visibility
270° at 8 knots 10,000+ meters
Clouds
  • Few at 4,000' AGL
  • Scattered at 10,000' AGL